Time;durP1;ratioP1;P1;durP2;ratioP2;P2;SDS_P1;SDS_P2;PMS_P1;PMS_P2;Temp;Humidity;BMP_temperature;BMP_pressure;BME280_temperature;BME280_humidity;BME280_pressure;Samples;Min_cycle;Max_cycle;Signal;HPM_P1;HPM_P2
2021/04/03 00:00:25;;;;;;;6.55;3.10;;;;;;;4.79;83.45;100840.59;5019338;28;20036;-73
2021/04/03 00:02:52;;;;;;;6.68;3.22;;;;;;;4.82;83.72;100855.44;5020921;28;20042;-73
2021/04/03 00:05:18;;;;;;;10.23;4.63;;;;;;;4.82;83.43;100856.34;5022587;28;20044;-73
2021/04/03 00:07:43;;;;;;;8.65;3.80;;;;;;;4.76;84.06;100845.75;5022584;28;20034;-72
2021/04/03 00:10:21;;;;;;;9.95;3.60;;;;;;;4.76;84.28;100844.88;5019358;28;20048;-72
2021/04/03 00:12:47;;;;;;;9.23;3.97;;;;;;;4.73;84.62;100840.44;5034629;28;20034;-73
2021/04/03 00:15:13;;;;;;;7.95;3.90;;;;;;;4.82;84.60;100839.75;5022445;28;20099;-72
2021/04/03 00:17:39;;;;;;;9.15;4.20;;;;;;;4.80;84.08;100837.13;5022858;28;20038;-72
2021/04/03 00:20:08;;;;;;;9.98;4.20;;;;;;;4.82;84.28;100840.66;5019378;28;20048;-73
2021/04/03 00:22:33;;;;;;;6.70;3.33;;;;;;;4.83;84.35;100831.97;5019403;28;20042;-72
2021/04/03 00:24:58;;;;;;;10.93;3.70;;;;;;;4.87;84.34;100837.25;5021610;28;20046;-72
2021/04/03 00:27:23;;;;;;;8.75;3.75;;;;;;;4.80;84.49;100829.28;5022537;28;20083;-72
2021/04/03 00:29:49;;;;;;;8.23;4.10;;;;;;;4.86;83.99;100832.88;5021662;28;20048;-72
2021/04/03 00:32:14;;;;;;;7.93;4.00;;;;;;;4.81;84.51;100828.41;5019460;28;20616;-71
2021/04/03 00:34:39;;;;;;;11.45;3.75;;;;;;;4.80;84.71;100824.06;5019481;28;20492;-72
2021/04/03 00:37:05;;;;;;;10.30;4.18;;;;;;;4.83;84.13;100831.97;5022421;28;20510;-73
2021/04/03 00:39:30;;;;;;;10.40;4.30;;;;;;;4.89;84.53;100832.94;5022612;28;20510;-72
2021/04/03 00:41:56;;;;;;;10.20;4.13;;;;;;;4.87;84.74;100827.66;5025243;28;20087;-72
2021/04/03 00:44:21;;;;;;;12.68;5.40;;;;;;;4.92;84.17;100828.66;5034333;28;20036;-72
2021/04/03 00:46:47;;;;;;;16.02;5.60;;;;;;;4.94;84.35;100826.09;5023392;28;20121;-72
2021/04/03 00:49:12;;;;;;;10.13;4.40;;;;;;;5.03;84.16;100823.66;5026147;28;20435;-72
2021/04/03 00:51:40;;;;;;;15.23;5.30;;;;;;;5.01;84.08;100823.63;5024887;28;20029;-72
2021/04/03 00:54:07;;;;;;;14.27;5.32;;;;;;;5.05;83.40;100838.53;5024941;28;20039;-73
2021/04/03 00:56:34;;;;;;;10.52;5.05;;;;;;;5.07;83.63;100830.72;5024465;28;20455;-72
2021/04/03 00:59:00;;;;;;;13.73;5.78;;;;;;;5.04;83.59;100833.28;5022069;28;20116;-73
2021/04/03 01:01:27;;;;;;;11.52;5.93;;;;;;;5.01;83.91;100822.75;5021187;28;20033;-72
2021/04/03 01:03:52;;;;;;;13.73;5.45;;;;;;;4.97;84.28;100826.16;5024214;28;20485;-73
2021/04/03 01:06:18;;;;;;;14.38;6.00;;;;;;;5.00;83.50;100823.59;5025870;28;20099;-73
2021/04/03 01:08:45;;;;;;;12.88;5.97;;;;;;;5.02;83.53;100816.66;5024186;28;20543;-72
2021/04/03 01:11:10;;;;;;;17.60;7.15;;;;;;;4.97;83.76;100823.53;5022278;28;20116;-73
2021/04/03 01:13:54;;;;;;;14.70;6.45;;;;;;;5.00;83.93;100820.97;5021088;28;20038;-72
2021/04/03 01:16:48;;;;;;;11.93;5.78;;;;;;;4.98;83.84;100815.72;5020827;28;20040;-73
2021/04/03 01:20:05;;;;;;;13.43;5.88;;;;;;;4.99;83.48;100812.25;5020990;28;20092;-72
2021/04/03 01:22:53;;;;;;;16.08;6.78;;;;;;;4.93;84.09;100812.13;5022256;28;20513;-72
2021/04/03 01:25:53;;;;;;;15.77;6.00;;;;;;;4.91;83.62;100808.59;5026364;28;20042;-73
2021/04/03 01:28:31;;;;;;;14.48;6.70;;;;;;;4.90;83.47;100819.91;5020829;28;20125;-73
2021/04/03 01:30:58;;;;;;;17.33;6.95;;;;;;;4.89;83.94;100819.88;5024396;28;20524;-72
2021/04/03 01:33:26;;;;;;;16.98;6.07;;;;;;;5.03;83.10;100823.66;5032305;28;20037;-73
2021/04/03 01:35:57;;;;;;;18.05;6.93;;;;;;;4.97;84.07;100818.28;5023474;28;20029;-72
2021/04/03 01:38:44;;;;;;;16.00;6.55;;;;;;;5.04;83.38;100821.06;5004747;28;20026;-73
2021/04/03 01:41:15;;;;;;;16.00;7.38;;;;;;;5.02;83.20;100827.13;5021762;28;20030;-72
2021/04/03 01:43:49;;;;;;;14.93;7.45;;;;;;;5.02;82.69;100821.91;5022080;28;20450;-73
2021/04/03 01:46:26;;;;;;;16.48;7.38;;;;;;;4.99;83.13;100822.72;5023577;28;20037;-72
2021/04/03 01:48:53;;;;;;;13.98;7.22;;;;;;;5.01;83.11;100834.09;5022321;28;20042;-73
2021/04/03 01:51:20;;;;;;;17.17;7.28;;;;;;;4.99;83.45;100830.56;5020077;28;20634;-73
2021/04/03 01:53:47;;;;;;;19.63;7.00;;;;;;;5.03;83.12;100828.88;5021493;28;20018;-73
2021/04/03 01:56:17;;;;;;;20.58;8.13;;;;;;;4.98;83.11;100826.19;5021692;28;20018;-73
2021/04/03 01:58:45;;;;;;;15.07;6.80;;;;;;;4.98;83.39;100830.53;5032922;28;20399;-73
2021/04/03 02:01:14;;;;;;;14.95;7.18;;;;;;;4.96;83.29;100827.00;5032908;28;20154;-73
2021/04/03 02:03:41;;;;;;;14.57;7.55;;;;;;;4.84;83.69;100822.38;5031688;28;20037;-73
2021/04/03 02:06:10;;;;;;;18.83;8.55;;;;;;;4.90;83.23;100830.38;5025239;28;20618;-73
2021/04/03 02:09:04;;;;;;;19.38;8.38;;;;;;;4.83;84.22;100838.94;5031499;28;20033;-73
2021/04/03 02:11:51;;;;;;;12.38;6.57;;;;;;;4.95;83.13;100833.06;5030232;28;20103;-74
2021/04/03 02:14:32;;;;;;;17.60;8.60;;;;;;;4.92;83.58;100830.38;5019955;28;20177;-73
2021/04/03 02:16:59;;;;;;;16.75;7.43;;;;;;;5.00;83.08;100836.66;5023531;28;20044;-74
2021/04/03 02:19:26;;;;;;;17.02;7.30;;;;;;;4.98;83.30;100848.84;5023230;28;20060;-73
2021/04/03 02:21:53;;;;;;;18.15;8.25;;;;;;;5.05;83.21;100849.00;5039892;28;20036;-73
2021/04/03 02:24:19;;;;;;;18.30;8.30;;;;;;;5.05;83.08;100842.88;5024466;28;20071;-73
2021/04/03 02:26:45;;;;;;;20.33;8.02;;;;;;;5.04;83.52;100841.13;5023402;28;20075;-72
2021/04/03 02:29:11;;;;;;;17.55;8.20;;;;;;;5.10;82.41;100845.59;5020853;28;20046;-73
2021/04/03 02:31:36;;;;;;;18.50;7.75;;;;;;;5.02;82.66;100838.47;5020805;28;20034;-73
2021/04/03 02:34:04;;;;;;;16.55;7.07;;;;;;;5.02;82.72;100842.81;5022756;28;20037;-73
2021/04/03 02:36:31;;;;;;;14.98;7.80;;;;;;;4.99;82.52;100833.16;5030847;28;20026;-73
2021/04/03 02:38:57;;;;;;;16.88;8.50;;;;;;;5.01;82.54;100834.09;5022046;28;20033;-73
2021/04/03 02:41:30;;;;;;;18.98;7.40;;;;;;;5.01;82.09;100844.56;5020583;28;20057;-73
2021/04/03 02:44:11;;;;;;;15.60;7.60;;;;;;;4.98;82.50;100844.50;5022751;28;20033;-73
2021/04/03 02:46:46;;;;;;;17.38;8.20;;;;;;;4.99;82.64;100856.72;5022474;28;20040;-73
2021/04/03 02:49:17;;;;;;;18.17;8.00;;;;;;;4.97;82.40;100866.25;5023619;28;20031;-73
2021/04/03 02:51:48;;;;;;;24.95;8.00;;;;;;;4.96;82.83;100853.16;5039157;28;20052;-73
2021/04/03 02:54:18;;;;;;;18.85;8.65;;;;;;;4.97;83.17;100865.38;5023925;28;20108;-73
2021/04/03 02:56:46;;;;;;;17.60;8.35;;;;;;;4.98;83.32;100864.56;5030001;28;20036;-73
2021/04/03 02:59:18;;;;;;;26.05;8.20;;;;;;;5.02;82.82;100859.38;5019146;28;20033;-73
2021/04/03 03:01:47;;;;;;;21.65;8.73;;;;;;;5.05;82.43;100864.69;5020742;28;20038;-74
2021/04/03 03:04:17;;;;;;;17.85;8.02;;;;;;;4.98;82.80;100875.88;5022092;28;20041;-73
2021/04/03 03:06:44;;;;;;;14.15;7.97;;;;;;;5.04;82.16;100872.50;5020594;28;20013;-74
2021/04/03 03:09:18;;;;;;;15.48;8.10;;;;;;;5.04;82.01;100869.91;5030307;28;20029;-73
2021/04/03 03:11:48;;;;;;;20.35;8.48;;;;;;;4.96;82.49;100868.84;5022184;28;20030;-73
2021/04/03 03:14:16;;;;;;;14.65;8.55;;;;;;;4.98;82.59;100875.00;5030452;28;20037;-73
2021/04/03 03:16:46;;;;;;;19.80;8.82;;;;;;;4.98;82.39;100873.28;5023044;28;20079;-73
2021/04/03 03:19:14;;;;;;;21.48;9.35;;;;;;;4.99;82.33;100874.16;5019997;28;20374;-73
2021/04/03 03:21:40;;;;;;;24.08;9.40;;;;;;;5.03;82.14;100875.97;5018723;28;20069;-73
2021/04/03 03:24:07;;;;;;;20.48;8.93;;;;;;;5.08;81.44;100881.31;5022222;28;20492;-73
2021/04/03 03:26:34;;;;;;;22.27;8.50;;;;;;;5.06;81.91;100883.91;5035184;28;20029;-73
2021/04/03 03:29:07;;;;;;;18.05;8.18;;;;;;;5.10;81.68;100887.47;5023317;28;20514;-73
2021/04/03 03:31:33;;;;;;;18.42;8.68;;;;;;;5.13;80.62;100885.78;5023434;28;20033;-73
2021/04/03 03:33:59;;;;;;;17.92;9.30;;;;;;;5.08;81.46;100881.31;5019541;28;20413;-73
2021/04/03 03:36:29;;;;;;;18.42;8.40;;;;;;;5.04;81.54;100896.06;5018332;28;20496;-74
2021/04/03 03:38:57;;;;;;;21.38;8.82;;;;;;;5.04;81.51;100890.84;5020556;28;20404;-73
2021/04/03 03:41:26;;;;;;;19.83;9.20;;;;;;;5.06;81.08;100891.75;5021716;28;20507;-73
2021/04/03 03:43:53;;;;;;;15.90;8.40;;;;;;;5.03;80.97;100889.94;5028374;28;20083;-74
2021/04/03 03:46:18;;;;;;;17.08;9.27;;;;;;;5.04;80.91;100893.44;5019417;28;20463;-73
2021/04/03 03:48:47;;;;;;;21.27;9.15;;;;;;;5.05;80.58;100906.53;5019303;28;20034;-74
2021/04/03 03:51:12;;;;;;;22.88;8.77;;;;;;;4.98;81.16;100903.78;5022976;28;20033;-74
2021/04/03 03:53:48;;;;;;;18.58;8.25;;;;;;;4.98;81.05;100914.25;5020896;28;20120;-74
2021/04/03 03:56:15;;;;;;;18.00;7.47;;;;;;;4.97;80.71;100918.56;5017989;28;20112;-73
2021/04/03 03:58:42;;;;;;;21.33;9.52;;;;;;;5.00;80.92;100907.28;5018398;28;20120;-73
2021/04/03 04:01:07;;;;;;;19.95;9.05;;;;;;;4.96;80.98;100902.84;5021820;28;20057;-73
2021/04/03 04:03:33;;;;;;;19.45;8.48;;;;;;;4.93;80.86;100915.88;5021767;28;20091;-73
2021/04/03 04:06:03;;;;;;;21.77;9.52;;;;;;;4.87;80.77;100913.09;5018363;28;20212;-74
2021/04/03 04:08:30;;;;;;;17.80;9.30;;;;;;;4.90;80.68;100918.38;5019568;28;20041;-73
2021/04/03 04:11:04;;;;;;;16.15;8.55;;;;;;;4.88;80.83;100912.28;5022488;28;20029;-73
2021/04/03 04:13:29;;;;;;;17.65;9.90;;;;;;;4.81;80.88;100921.69;5029904;28;20494;-73
2021/04/03 04:15:55;;;;;;;26.33;9.20;;;;;;;4.72;80.28;100922.38;5020798;28;20460;-74
2021/04/03 04:18:22;;;;;;;21.67;9.98;;;;;;;4.61;80.72;100929.03;5022179;28;20041;-73
2021/04/03 04:20:48;;;;;;;16.75;9.68;;;;;;;4.43;81.89;100928.59;5022858;28;20037;-73
2021/04/03 04:23:21;;;;;;;21.80;9.60;;;;;;;4.46;81.65;100933.91;5026820;28;20036;-73
2021/04/03 04:25:51;;;;;;;16.35;9.30;;;;;;;4.48;81.40;100926.97;5031888;28;20037;-73
2021/04/03 04:28:20;;;;;;;23.20;10.07;;;;;;;4.52;81.26;100940.16;5022003;28;20091;-73
2021/04/03 04:30:47;;;;;;;20.45;9.48;;;;;;;4.49;81.08;100940.09;5022742;28;20034;-73
2021/04/03 04:33:13;;;;;;;23.23;9.23;;;;;;;4.49;81.49;100947.06;5025268;28;20029;-73
2021/04/03 04:35:38;;;;;;;24.20;10.73;;;;;;;4.45;81.64;100943.47;5024972;28;20435;-73
2021/04/03 04:38:10;;;;;;;21.15;9.70;;;;;;;4.51;80.81;100954.09;5025878;28;20535;-73
2021/04/03 04:40:40;;;;;;;20.08;8.85;;;;;;;4.50;81.05;100956.66;5024978;28;20488;-73
2021/04/03 04:43:09;;;;;;;19.65;10.00;;;;;;;4.48;81.34;100942.66;5025619;28;20033;-73
2021/04/03 04:45:40;;;;;;;23.63;10.07;;;;;;;4.51;81.12;100963.69;5024556;28;20040;-73
2021/04/03 04:48:06;;;;;;;23.02;9.70;;;;;;;4.50;81.11;100957.53;5021904;28;20409;-73
2021/04/03 04:50:32;;;;;;;18.75;9.38;;;;;;;4.54;80.68;100963.75;5022712;28;20038;-73
2021/04/03 04:53:00;;;;;;;21.88;9.45;;;;;;;4.52;80.74;100965.44;5023992;28;20080;-75
2021/04/03 04:55:28;;;;;;;21.05;9.23;;;;;;;4.45;80.70;100981.78;5024694;28;20125;-73
2021/04/03 04:57:53;;;;;;;23.35;10.23;;;;;;;4.46;80.64;100975.75;5028332;28;20041;-73
2021/04/03 05:00:24;;;;;;;26.95;10.15;;;;;;;4.47;80.76;100978.38;5033737;28;20025;-73
2021/04/03 05:03:28;;;;;;;26.67;9.68;;;;;;;4.41;80.79;100985.19;5014295;28;20088;-72
2021/04/03 05:05:54;;;;;;;25.52;9.20;;;;;;;4.51;79.59;100993.31;5028989;28;20037;-71
2021/04/03 05:08:19;;;;;;;15.23;8.65;;;;;;;4.55;78.78;100997.75;5022451;28;20472;-72
2021/04/03 05:10:44;;;;;;;19.42;8.82;;;;;;;4.47;78.88;100987.94;5029947;28;20076;-72
2021/04/03 05:13:10;;;;;;;23.20;8.98;;;;;;;4.52;78.90;100984.59;5032674;28;20041;-71
2021/04/03 05:15:35;;;;;;;23.27;8.40;;;;;;;4.57;79.11;100989.97;5026430;28;20041;-71
2021/04/03 05:18:00;;;;;;;20.40;9.23;;;;;;;4.60;79.38;100990.03;5031783;28;20041;-71
2021/04/03 05:20:26;;;;;;;17.38;8.75;;;;;;;4.64;79.83;100996.22;5032415;28;20040;-70
2021/04/03 05:22:51;;;;;;;21.88;9.32;;;;;;;4.74;79.46;100988.66;5033151;28;20088;-71
2021/04/03 05:25:17;;;;;;;22.95;9.85;;;;;;;4.80;79.45;100987.94;5021475;28;20026;-71
2021/04/03 05:27:42;;;;;;;21.10;9.88;;;;;;;4.90;79.42;100996.84;5022761;28;20033;-71
2021/04/03 05:30:09;;;;;;;14.77;9.10;;;;;;;4.92;78.03;100997.78;5024048;28;20404;-71
2021/04/03 05:32:35;;;;;;;25.13;9.70;;;;;;;4.81;78.79;101008.88;5021336;28;20061;-71
2021/04/03 05:35:00;;;;;;;19.75;9.55;;;;;;;4.81;78.84;101002.75;5018939;28;20029;-71
2021/04/03 05:37:26;;;;;;;19.17;8.70;;;;;;;4.76;79.51;101007.88;5019926;28;20030;-71
2021/04/03 05:39:51;;;;;;;31.10;10.90;;;;;;;4.86;79.14;101018.56;5020130;28;20029;-71
2021/04/03 05:42:18;;;;;;;24.35;10.02;;;;;;;4.80;78.74;101014.06;5034515;28;20420;-71
2021/04/03 05:44:44;;;;;;;25.25;9.80;;;;;;;4.79;79.31;101013.19;5028288;28;20132;-71
2021/04/03 05:47:10;;;;;;;25.30;9.20;;;;;;;4.86;79.10;101011.59;5018459;28;20392;-70
2021/04/03 05:49:36;;;;;;;20.70;9.50;;;;;;;4.84;79.35;101027.25;5023622;28;20096;-71
2021/04/03 05:52:03;;;;;;;20.60;10.40;;;;;;;4.87;78.22;101018.59;5025047;28;20409;-71
2021/04/03 05:54:30;;;;;;;18.15;8.80;;;;;;;4.76;78.86;101028.78;5024934;28;20175;-71
2021/04/03 05:56:55;;;;;;;25.73;9.65;;;;;;;4.75;79.40;101027.03;5013500;28;20037;-71
2021/04/03 05:59:21;;;;;;;22.65;9.65;;;;;;;4.86;78.60;101019.44;5021567;28;20059;-71
2021/04/03 06:01:46;;;;;;;21.40;8.55;;;;;;;4.93;78.08;101020.50;5022103;28;20046;-71
2021/04/03 06:04:11;;;;;;;21.92;9.15;;;;;;;4.83;78.14;101024.59;5023616;28;20033;-71
2021/04/03 06:06:38;;;;;;;22.33;9.32;;;;;;;4.73;78.33;101028.72;5024517;28;20033;-72
2021/04/03 06:09:04;;;;;;;22.05;8.55;;;;;;;4.77;78.44;101040.16;5021935;28;20404;-71
2021/04/03 06:11:30;;;;;;;19.20;9.35;;;;;;;4.74;78.34;101047.91;5020692;28;20033;-71
2021/04/03 06:13:55;;;;;;;20.90;9.88;;;;;;;4.75;79.10;101037.50;5018908;28;20462;-71
2021/04/03 06:16:30;;;;;;;25.92;10.10;;;;;;;4.90;78.31;101046.56;5020660;28;20447;-71
2021/04/03 06:19:14;;;;;;;21.52;9.52;;;;;;;4.86;77.94;101053.44;5018476;28;20112;-71
2021/04/03 06:21:46;;;;;;;18.92;9.27;;;;;;;4.71;78.47;101053.94;5018008;28;20048;-71
2021/04/03 06:24:25;;;;;;;24.77;9.63;;;;;;;4.71;78.01;101048.69;5021107;28;20037;-71
2021/04/03 06:27:13;;;;;;;21.50;9.20;;;;;;;4.76;78.25;101054.94;5022027;28;20042;-73
2021/04/03 06:29:53;;;;;;;17.45;7.78;;;;;;;4.93;76.82;101058.00;5029460;28;20037;-70
2021/04/03 06:32:32;;;;;;;20.80;9.48;;;;;;;4.93;77.28;101068.47;5020917;28;20099;-71
2021/04/03 06:34:58;;;;;;;18.27;9.25;;;;;;;4.85;77.83;101072.63;5023195;28;20034;-71
2021/04/03 06:37:31;;;;;;;18.67;8.32;;;;;;;4.82;77.37;101068.19;5018047;28;20035;-71
2021/04/03 06:40:03;;;;;;;20.33;8.48;;;;;;;4.83;77.69;101072.56;5022548;28;20044;-71
2021/04/03 06:42:45;;;;;;;17.50;8.15;;;;;;;4.82;77.31;101080.34;5022834;28;20508;-72
2021/04/03 06:45:21;;;;;;;18.48;8.68;;;;;;;4.91;77.05;101093.69;5016055;28;20496;-72
2021/04/03 06:47:48;;;;;;;18.90;8.60;;;;;;;4.93;77.02;101088.50;5023946;28;20037;-72
2021/04/03 06:50:15;;;;;;;17.98;7.45;;;;;;;4.87;76.68;101090.94;5022689;28;20041;-73
2021/04/03 06:52:41;;;;;;;22.05;7.97;;;;;;;4.82;77.22;101083.88;5023896;28;20059;-73
2021/04/03 06:55:10;;;;;;;16.92;7.80;;;;;;;4.94;77.64;101098.13;5022505;28;20028;-73
2021/04/03 06:57:37;;;;;;;18.08;7.68;;;;;;;5.09;76.76;101100.25;5039163;28;20093;-73
2021/04/03 07:00:04;;;;;;;19.55;8.15;;;;;;;5.23;76.17;101109.31;5023730;28;20116;-71
2021/04/03 07:02:31;;;;;;;17.88;7.55;;;;;;;5.40;75.23;101097.53;5030706;28;20037;-72
2021/04/03 07:04:59;;;;;;;22.05;7.90;;;;;;;5.30;75.56;101105.13;5033743;28;20391;-72
2021/04/03 07:07:28;;;;;;;16.98;8.13;;;;;;;5.37;75.13;101104.41;5023414;28;20052;-73
2021/04/03 07:09:55;;;;;;;18.15;8.15;;;;;;;5.44;75.42;101114.19;5021959;28;20124;-72
2021/04/03 07:12:22;;;;;;;20.70;8.30;;;;;;;5.57;74.91;101111.00;5020174;28;20041;-73
2021/04/03 07:14:48;;;;;;;18.40;8.52;;;;;;;5.85;74.37;101107.28;5020985;28;20435;-73
2021/04/03 07:17:15;;;;;;;22.25;7.82;;;;;;;5.88;73.35;101119.56;5023355;28;20037;-73
2021/04/03 07:19:43;;;;;;;22.73;8.77;;;;;;;6.02;73.94;101093.69;5023512;28;20037;-71
2021/04/03 07:22:08;;;;;;;15.25;7.32;;;;;;;6.36;74.50;101100.53;5019962;28;20045;-71
2021/04/03 07:24:35;;;;;;;18.58;8.27;;;;;;;6.54;73.33;101114.00;5018814;28;20132;-72
2021/04/03 07:27:02;;;;;;;17.60;7.15;;;;;;;6.22;72.05;101122.97;5022322;28;20073;-72
2021/04/03 07:29:48;;;;;;;17.17;7.72;;;;;;;5.86;72.26;101139.59;5022073;28;20029;-72
2021/04/03 07:32:33;;;;;;;22.75;7.55;;;;;;;5.77;73.50;101135.06;5017502;28;20041;-72
2021/04/03 07:35:00;;;;;;;20.85;8.30;;;;;;;6.14;73.17;101134.16;5010526;28;20798;-72
2021/04/03 07:37:34;;;;;;;18.27;7.20;;;;;;;6.37;71.53;101139.00;5010649;28;20399;-71
2021/04/03 07:39:59;;;;;;;20.08;7.55;;;;;;;6.50;72.67;101135.78;5018656;28;20061;-72
2021/04/03 07:42:38;;;;;;;14.75;6.63;;;;;;;6.25;71.98;101150.13;5021727;28;20046;-72
2021/04/03 07:45:08;;;;;;;16.70;7.05;;;;;;;5.96;72.67;101151.22;5023906;28;20037;-72
2021/04/03 07:47:47;;;;;;;20.55;6.82;;;;;;;5.76;73.11;101153.34;5022627;28;20511;-72
2021/04/03 07:50:49;;;;;;;19.70;7.63;;;;;;;5.78;72.54;101143.78;5022823;28;20119;-72
2021/04/03 07:53:32;;;;;;;18.63;7.10;;;;;;;6.01;72.56;101155.72;5014661;28;20048;-71
2021/04/03 07:55:57;;;;;;;13.55;5.78;;;;;;;6.32;72.13;101156.38;5010268;28;20029;-72
2021/04/03 07:58:24;;;;;;;15.07;6.53;;;;;;;6.50;71.92;101161.13;5014521;28;20107;-72
2021/04/03 08:00:50;;;;;;;19.63;6.50;;;;;;;6.59;70.65;101150.81;5014432;28;20747;-72
2021/04/03 08:03:23;;;;;;;13.80;6.07;;;;;;;6.49;71.70;101164.59;5010385;28;20025;-72
2021/04/03 08:05:56;;;;;;;13.32;6.10;;;;;;;6.56;69.86;101167.38;5009911;28;20646;-73
2021/04/03 08:08:22;;;;;;;18.35;7.40;;;;;;;6.58;71.18;101164.78;5010293;28;20026;-72
2021/04/03 08:10:47;;;;;;;16.08;6.55;;;;;;;6.72;70.88;101176.44;5010105;28;20554;-72
2021/04/03 08:13:18;;;;;;;12.57;5.45;;;;;;;6.76;70.70;101191.38;5010862;28;20037;-72
2021/04/03 08:15:48;;;;;;;13.57;6.10;;;;;;;6.80;69.95;101189.69;5014515;28;20025;-72
2021/04/03 08:18:13;;;;;;;12.85;5.72;;;;;;;7.00;68.76;101180.47;5018486;28;20033;-72
2021/04/03 08:20:52;;;;;;;11.75;5.50;;;;;;;7.17;68.31;101182.53;5018688;28;20045;-72
2021/04/03 08:23:29;;;;;;;14.35;5.75;;;;;;;7.32;68.68;101177.53;5019160;28;20489;-72
2021/04/03 08:25:54;;;;;;;14.25;5.05;;;;;;;7.23;67.44;101194.03;5020472;28;20037;-72
2021/04/03 08:28:20;;;;;;;13.63;5.00;;;;;;;7.03;67.69;101191.03;5021253;28;20049;-71
2021/04/03 08:30:46;;;;;;;12.68;5.20;;;;;;;6.90;68.88;101181.16;5021742;28;20037;-71
2021/04/03 08:33:13;;;;;;;12.57;5.30;;;;;;;6.87;69.58;101183.72;5019195;28;20049;-72
2021/04/03 08:35:44;;;;;;;13.25;4.90;;;;;;;7.06;68.68;101174.44;5018806;28;20033;-71
2021/04/03 08:38:28;;;;;;;13.10;5.50;;;;;;;7.22;69.14;101180.88;5019057;28;20033;-72
2021/04/03 08:40:55;;;;;;;8.75;4.70;;;;;;;7.18;65.91;101186.94;5018933;28;20488;-72
2021/04/03 08:43:23;;;;;;;10.40;4.18;;;;;;;7.08;64.67;101178.00;5022332;28;20037;-72
2021/04/03 08:45:49;;;;;;;11.98;4.40;;;;;;;7.07;65.93;101180.56;5029756;28;20038;-72
2021/04/03 08:48:14;;;;;;;10.98;4.35;;;;;;;7.04;65.19;101181.41;5029513;28;20033;-71
2021/04/03 08:50:45;;;;;;;11.93;4.72;;;;;;;7.13;65.28;101191.22;5022440;28;20492;-72
2021/04/03 08:53:10;;;;;;;18.10;8.45;;;;;;;7.31;63.74;101188.91;5019507;28;20034;-74
2021/04/03 08:55:36;;;;;;;12.02;4.32;;;;;;;7.35;62.66;101188.09;5028747;28;20111;-70
2021/04/03 08:58:04;;;;;;;48.88;23.42;;;;;;;7.41;62.53;101182.97;5030891;28;20047;-71
2021/04/03 09:00:30;;;;;;;8.90;3.33;;;;;;;7.44;60.93;101187.38;5021573;28;20099;-71
2021/04/03 09:02:57;;;;;;;11.32;4.38;;;;;;;7.40;61.07;101181.19;5024884;28;20072;-72
2021/04/03 09:05:23;;;;;;;9.55;3.97;;;;;;;7.55;62.23;101180.56;5022656;28;20037;-72
2021/04/03 09:07:48;;;;;;;9.32;3.85;;;;;;;7.57;57.35;101177.94;5031956;28;20037;-72
2021/04/03 09:10:19;;;;;;;6.88;2.53;;;;;;;7.62;53.55;101171.94;5025479;28;20171;-73
2021/04/03 09:12:46;;;;;;;11.45;3.25;;;;;;;7.94;56.79;101173.28;5025363;28;20048;-72
2021/04/03 09:15:13;;;;;;;8.00;4.00;;;;;;;8.29;55.48;101160.63;5021892;28;20022;-72
2021/04/03 09:17:46;;;;;;;6.72;2.78;;;;;;;8.44;51.89;101166.13;5021397;28;20120;-75
2021/04/03 09:20:14;;;;;;;9.48;2.35;;;;;;;8.65;49.41;101168.16;5020995;28;20065;-72
2021/04/03 09:22:42;;;;;;;7.25;2.55;;;;;;;8.89;50.10;101164.03;5021971;28;20099;-72
2021/04/03 09:25:10;;;;;;;5.72;2.45;;;;;;;9.14;52.11;101159.88;5016606;28;20033;-72
2021/04/03 09:27:35;;;;;;;9.13;3.42;;;;;;;8.99;52.16;101161.50;5024622;28;20076;-70
2021/04/03 09:30:05;;;;;;;8.18;2.85;;;;;;;8.75;52.42;101162.13;5024662;28;20057;-71
2021/04/03 09:32:47;;;;;;;6.70;1.45;;;;;;;8.61;45.92;101160.19;5025430;28;20029;-71
2021/04/03 09:35:21;;;;;;;5.60;1.38;;;;;;;8.61;42.50;101168.94;5021745;28;20034;-72
2021/04/03 09:38:03;;;;;;;6.18;1.42;;;;;;;8.60;44.47;101161.94;5021262;28;20447;-72
2021/04/03 09:40:37;;;;;;;4.85;1.80;;;;;;;8.66;43.37;101156.75;5025156;28;20041;-72
2021/04/03 09:43:03;;;;;;;7.47;1.80;;;;;;;8.86;42.63;101164.88;5022494;28;20447;-71
2021/04/03 09:45:29;;;;;;;5.25;1.58;;;;;;;8.86;40.78;101164.88;5021483;28;20076;-72
2021/04/03 09:47:58;;;;;;;5.95;2.28;;;;;;;9.11;41.24;101154.59;5040066;28;20040;-72
2021/04/03 09:50:25;;;;;;;6.07;2.05;;;;;;;9.25;40.56;101157.34;5025046;28;20049;-71
2021/04/03 09:52:55;;;;;;;5.90;1.83;;;;;;;9.29;39.04;101148.63;5023730;28;20097;-72
2021/04/03 09:55:20;;;;;;;2.78;1.00;;;;;;;9.32;37.63;101151.25;5021261;28;20065;-72
2021/04/03 09:57:46;;;;;;;4.38;1.10;;;;;;;9.26;40.54;101169.66;5029758;28;20041;-72
2021/04/03 10:00:12;;;;;;;4.50;1.40;;;;;;;9.33;37.95;101145.16;5021382;28;20041;-72
2021/04/03 10:02:38;;;;;;;2.58;1.20;;;;;;;9.13;38.54;101164.25;5021385;28;20149;-71
2021/04/03 10:05:04;;;;;;;5.70;1.05;;;;;;;9.19;37.70;101142.38;5024040;28;20521;-72
2021/04/03 10:07:30;;;;;;;3.67;1.10;;;;;;;9.21;36.41;101149.41;5024729;28;20033;-72
2021/04/03 10:09:55;;;;;;;3.28;1.15;;;;;;;9.48;38.31;101158.44;5022935;28;20041;-71
2021/04/03 10:12:21;;;;;;;3.90;1.00;;;;;;;9.73;34.27;101146.34;5019739;28;20049;-72
2021/04/03 10:14:46;;;;;;;4.32;1.30;;;;;;;9.37;35.17;101157.47;5020714;28;20037;-72
2021/04/03 10:17:11;;;;;;;3.35;1.08;;;;;;;9.27;37.33;101139.81;5024334;28;20033;-71
2021/04/03 10:19:37;;;;;;;4.22;1.35;;;;;;;8.91;38.01;101178.09;5024707;28;20033;-72
2021/04/03 10:22:02;;;;;;;6.57;1.40;;;;;;;8.83;39.55;101171.81;5021687;28;20493;-71
2021/04/03 10:24:28;;;;;;;4.25;1.25;;;;;;;8.93;38.15;101171.06;5021083;28;20041;-71
2021/04/03 10:26:53;;;;;;;4.40;1.23;;;;;;;8.79;37.57;101168.28;5028939;28;20096;-71
2021/04/03 10:29:19;;;;;;;4.55;1.08;;;;;;;8.83;37.74;101178.00;5020933;28;20132;-71
2021/04/03 10:31:44;;;;;;;4.28;1.27;;;;;;;9.15;38.08;101175.69;5021106;28;20125;-72
2021/04/03 10:34:09;;;;;;;2.67;0.95;;;;;;;9.56;39.21;101169.94;5031286;28;20049;-72
2021/04/03 10:36:35;;;;;;;3.58;1.27;;;;;;;9.74;37.90;101157.75;5024023;28;20057;-72
2021/04/03 10:39:00;;;;;;;4.18;1.40;;;;;;;9.37;36.84;101189.94;5021997;28;20033;-72
2021/04/03 10:41:26;;;;;;;4.13;1.17;;;;;;;8.95;38.87;101174.59;5020722;28;20038;-72
2021/04/03 10:43:51;;;;;;;4.18;1.42;;;;;;;8.66;39.63;101179.53;5020622;28;20040;-72
2021/04/03 10:46:16;;;;;;;5.43;1.70;;;;;;;8.66;39.34;101162.00;5023711;28;20114;-72
2021/04/03 10:48:42;;;;;;;4.53;1.50;;;;;;;8.86;40.01;101170.13;5024120;28;20121;-71
2021/04/03 10:51:07;;;;;;;4.03;1.27;;;;;;;9.23;38.78;101172.28;5038950;28;20064;-73
2021/04/03 10:53:33;;;;;;;4.05;1.20;;;;;;;9.62;38.46;101158.56;5025512;28;20034;-72
2021/04/03 10:55:58;;;;;;;2.92;1.13;;;;;;;10.00;38.87;101155.28;5022496;28;20117;-71
2021/04/03 10:58:24;;;;;;;3.15;1.00;;;;;;;9.94;37.84;101145.59;5026345;28;20037;-73
2021/04/03 11:00:49;;;;;;;3.05;1.00;;;;;;;9.70;37.60;101166.53;5020062;28;20085;-73
2021/04/03 11:03:15;;;;;;;4.85;1.83;;;;;;;9.05;36.87;101191.41;5022547;28;20123;-73
2021/04/03 11:05:40;;;;;;;5.68;1.70;;;;;;;8.80;39.03;101163.91;5023535;28;20119;-73
2021/04/03 11:08:06;;;;;;;4.55;1.40;;;;;;;8.91;38.11;101172.81;5020552;28;20045;-74
2021/04/03 11:10:31;;;;;;;4.82;1.77;;;;;;;9.21;37.72;101169.59;5019287;28;20033;-73
2021/04/03 11:12:57;;;;;;;5.43;1.50;;;;;;;9.44;37.11;101159.28;5027343;28;20063;-72
2021/04/03 11:15:22;;;;;;;3.75;1.40;;;;;;;9.51;36.36;101158.47;5032173;28;20177;-73
2021/04/03 11:17:48;;;;;;;2.95;0.93;;;;;;;9.53;36.79;101163.75;5020996;28;20065;-73
2021/04/03 11:20:13;;;;;;;3.05;1.40;;;;;;;9.42;34.08;101187.38;5023267;28;20111;-74
2021/04/03 11:22:40;;;;;;;1.35;0.70;;;;;;;9.60;35.69;101171.72;5021969;28;20510;-73
2021/04/03 11:25:07;;;;;;;4.47;1.65;;;;;;;10.19;33.90;101166.81;5026629;28;20045;-73
2021/04/03 11:27:32;;;;;;;3.58;0.80;;;;;;;10.22;34.12;101166.88;5019991;28;20037;-74
2021/04/03 11:29:57;;;;;;;5.05;0.90;;;;;;;10.05;32.62;101164.13;5021856;28;20045;-72
2021/04/03 11:32:23;;;;;;;3.70;1.40;;;;;;;9.85;33.30;101145.53;5023322;28;20056;-73
2021/04/03 11:34:48;;;;;;;2.97;0.80;;;;;;;10.01;32.78;101160.59;5022585;28;20116;-73